Time;durP1;ratioP1;P1;durP2;ratioP2;P2;SDS_P1;SDS_P2;PMS_P1;PMS_P2;Temp;Humidity;BMP_temperature;BMP_pressure;BME280_temperature;BME280_humidity;BME280_pressure;Samples;Min_cycle;Max_cycle;Signal;HPM_P1;HPM_P2
2023/09/19 03:52:13;;;;;;;12.37;6.30;;;;;;;20.69;100.00;99820.09;5500142;28;20602;-84
2023/09/19 03:55:16;;;;;;;9.65;6.07;;;;;;;20.70;100.00;99824.47;5257908;33;33418;-83
2023/09/19 03:58:20;;;;;;;13.48;6.75;;;;;;;20.80;100.00;99827.34;5247803;33;33270;-83
2023/09/19 04:01:27;;;;;;;9.13;5.68;;;;;;;20.83;100.00;99827.63;5251544;33;33449;-84
2023/09/19 04:04:31;;;;;;;11.90;6.30;;;;;;;20.87;100.00;99829.84;5263454;33;33065;-84
2023/09/19 04:07:34;;;;;;;10.65;6.40;;;;;;;20.90;100.00;99838.34;5260359;33;33382;-84
2023/09/19 04:10:37;;;;;;;10.73;6.20;;;;;;;20.92;100.00;99838.12;5261116;33;33338;-84
2023/09/19 04:13:40;;;;;;;9.48;6.40;;;;;;;21.02;100.00;99836.28;5270640;33;33178;-84
2023/09/19 04:16:44;;;;;;;11.38;6.57;;;;;;;21.06;100.00;99840.16;5246710;33;32886;-84
2023/09/19 04:19:47;;;;;;;9.88;5.62;;;;;;;21.10;100.00;99842.38;5257877;33;34059;-84
2023/09/19 04:22:51;;;;;;;8.98;5.93;;;;;;;21.14;100.00;99841.56;5260870;33;33317;-83
2023/09/19 04:25:54;;;;;;;10.85;6.20;;;;;;;21.17;100.00;99837.50;5260093;33;33256;-84
2023/09/19 04:28:57;;;;;;;9.57;4.93;;;;;;;21.21;100.00;99850.41;5246873;33;33227;-84
2023/09/19 04:32:00;;;;;;;7.70;4.47;;;;;;;21.25;100.00;99850.72;5255087;33;33397;-84
2023/09/19 04:35:06;;;;;;;7.03;4.43;;;;;;;21.31;100.00;99852.41;5265595;33;33104;-84
2023/09/19 04:38:09;;;;;;;5.25;3.65;;;;;;;21.25;100.00;99856.19;5277925;33;33937;-84
2023/09/19 04:41:13;;;;;;;11.80;3.47;;;;;;;21.16;100.00;99855.03;5290182;33;35355;-84
2023/09/19 04:44:16;;;;;;;6.80;3.72;;;;;;;21.19;100.00;99868.19;5252026;33;33642;-84
2023/09/19 04:47:19;;;;;;;6.32;3.45;;;;;;;21.24;100.00;99869.06;5242312;33;33418;-83
2023/09/19 04:50:24;;;;;;;4.40;3.05;;;;;;;21.27;99.68;99864.97;5242718;33;34158;-84
2023/09/19 04:53:27;;;;;;;4.43;3.08;;;;;;;21.28;99.70;99872.09;5242370;33;33295;-84
2023/09/19 04:56:32;;;;;;;3.85;2.78;;;;;;;21.27;99.73;99878.66;5255222;33;33370;-84
2023/09/19 04:59:36;;;;;;;6.10;2.28;;;;;;;21.32;98.59;99867.72;5243056;33;34138;-84
2023/09/19 05:02:42;;;;;;;6.45;2.40;;;;;;;21.34;97.55;99878.44;5243066;33;33873;-84
2023/09/19 05:05:45;;;;;;;5.87;2.22;;;;;;;21.28;97.40;99888.53;5259035;33;34524;-84
2023/09/19 05:08:52;;;;;;;3.72;1.87;;;;;;;21.25;97.30;99878.09;5256524;33;34421;-85
2023/09/19 05:11:56;;;;;;;2.92;1.95;;;;;;;21.25;97.78;99881.66;5242676;33;33241;-84
2023/09/19 05:14:59;;;;;;;2.78;1.62;;;;;;;21.26;97.58;99894.28;5242969;33;34023;-86
2023/09/19 05:18:03;;;;;;;1.55;1.15;;;;;;;21.20;98.09;99897.19;5264602;33;32698;-88
2023/09/19 05:21:06;;;;;;;3.85;1.58;;;;;;;21.10;98.50;99910.81;5257665;33;34822;-88
2023/09/19 05:24:09;;;;;;;3.15;1.27;;;;;;;21.05;99.54;99908.84;5256428;33;34850;-88
2023/09/19 05:27:16;;;;;;;1.65;0.93;;;;;;;20.90;100.00;99916.91;5266834;33;33796;-85
2023/09/19 05:30:20;;;;;;;1.58;0.98;;;;;;;20.61;100.00;99931.59;5266841;33;33284;-85
2023/09/19 05:33:22;;;;;;;1.00;0.85;;;;;;;20.59;100.00;99936.53;5259382;33;33652;-84
2023/09/19 05:36:25;;;;;;;1.62;1.00;;;;;;;20.45;100.00;99937.94;5246773;33;33365;-83
2023/09/19 05:39:28;;;;;;;0.95;0.68;;;;;;;20.22;100.00;99944.47;5261706;33;34370;-83
2023/09/19 05:42:31;;;;;;;3.60;0.80;;;;;;;20.09;100.00;99939.34;5261994;33;34408;-84
2023/09/19 05:45:36;;;;;;;1.33;0.70;;;;;;;19.97;100.00;99942.19;5256100;33;34142;-84
2023/09/19 05:48:41;;;;;;;1.10;0.80;;;;;;;19.96;100.00;99937.00;5258499;33;33237;-85
2023/09/19 05:51:45;;;;;;;1.20;0.70;;;;;;;19.96;100.00;99937.81;5271904;33;34240;-84
2023/09/19 05:54:49;;;;;;;0.70;0.70;;;;;;;19.97;100.00;99944.09;5251356;33;34671;-84
2023/09/19 05:57:53;;;;;;;0.70;0.70;;;;;;;19.87;100.00;99934.66;5244553;33;33450;-84
2023/09/19 06:00:57;;;;;;;1.00;0.60;;;;;;;19.89;100.00;99948.06;5262569;33;33035;-84
2023/09/19 06:04:00;;;;;;;1.58;0.77;;;;;;;19.90;100.00;99952.47;5254025;33;33748;-84
2023/09/19 06:07:04;;;;;;;0.85;0.62;;;;;;;19.82;100.00;99958.34;5251301;33;33014;-84
2023/09/19 06:10:08;;;;;;;0.60;0.50;;;;;;;19.73;100.00;99949.75;5249751;33;33598;-85
2023/09/19 06:13:11;;;;;;;1.70;0.70;;;;;;;19.64;100.00;99960.22;5264212;33;34079;-85
2023/09/19 06:16:14;;;;;;;1.65;0.90;;;;;;;19.59;100.00;99962.03;5259284;33;33383;-84
2023/09/19 06:19:17;;;;;;;1.62;0.90;;;;;;;19.58;100.00;99965.84;5241141;33;34151;-84
2023/09/19 06:22:20;;;;;;;1.25;0.60;;;;;;;19.35;100.00;99969.53;5236975;33;33137;-84
2023/09/19 06:25:22;;;;;;;1.62;0.93;;;;;;;18.94;100.00;99971.50;5230377;33;33858;-84
2023/09/19 06:28:27;;;;;;;2.55;1.27;;;;;;;18.69;100.00;99969.06;5255712;33;33526;-84
2023/09/19 06:31:31;;;;;;;1.73;0.52;;;;;;;18.55;100.00;99966.59;5257923;33;34766;-85
2023/09/19 06:34:34;;;;;;;0.60;0.60;;;;;;;18.64;100.00;99968.97;5260577;33;33753;-85
2023/09/19 06:37:38;;;;;;;0.70;0.70;;;;;;;18.70;100.00;99978.91;5256781;33;34295;-84
2023/09/19 06:40:42;;;;;;;0.73;0.73;;;;;;;18.85;100.00;99984.69;5264834;33;36266;-84
2023/09/19 06:43:45;;;;;;;1.30;0.60;;;;;;;18.90;100.00;99984.81;5252689;33;33766;-85
2023/09/19 06:46:51;;;;;;;0.98;0.62;;;;;;;18.88;100.00;99994.31;5247155;33;32881;-84
2023/09/19 06:49:54;;;;;;;0.70;0.70;;;;;;;18.79;100.00;99994.69;5247826;33;33595;-85
2023/09/19 06:52:59;;;;;;;1.55;0.77;;;;;;;18.72;100.00;100001.28;5252281;33;33410;-85
2023/09/19 06:56:02;;;;;;;0.50;0.50;;;;;;;18.60;100.00;99998.59;5236852;33;33746;-84
2023/09/19 06:59:09;;;;;;;0.70;0.70;;;;;;;18.54;100.00;100010.47;5267738;33;33488;-85
2023/09/19 07:02:13;;;;;;;0.88;0.70;;;;;;;18.59;100.00;100011.41;5266435;33;33356;-85
2023/09/19 07:05:18;;;;;;;1.15;0.80;;;;;;;18.63;100.00;100011.75;5247210;33;33274;-85
2023/09/19 07:08:21;;;;;;;0.52;0.40;;;;;;;18.63;100.00;100011.75;5250579;33;32038;-84
2023/09/19 07:11:24;;;;;;;0.50;0.50;;;;;;;18.57;100.00;100023.59;5267813;33;34260;-84
2023/09/19 07:14:28;;;;;;;0.40;0.40;;;;;;;18.48;100.00;100025.88;5259135;33;33416;-85
2023/09/19 07:17:32;;;;;;;1.35;0.40;;;;;;;18.42;100.00;100031.44;5244083;33;33634;-90
2023/09/19 07:20:36;;;;;;;0.90;0.60;;;;;;;18.46;100.00;100032.66;5264668;33;33360;-89
2023/09/19 07:23:39;;;;;;;0.80;0.70;;;;;;;18.43;100.00;100042.12;5248560;33;33732;-89
2023/09/19 07:26:54;;;;;;;0.30;0.30;;;;;;;18.52;100.00;100048.06;5254739;33;33162;-87
2023/09/19 07:30:40;;;;;;;0.50;0.50;;;;;;;18.66;100.00;100043.16;5259261;33;33334;-86
2023/09/19 07:33:43;;;;;;;1.02;0.90;;;;;;;18.70;100.00;100044.34;5232990;33;32918;-84
2023/09/19 07:36:47;;;;;;;0.88;0.57;;;;;;;18.88;100.00;100051.59;5255716;33;33372;-83
2023/09/19 07:39:51;;;;;;;0.60;0.60;;;;;;;18.87;100.00;100049.94;5262219;33;34159;-85
2023/09/19 07:42:55;;;;;;;0.62;0.62;;;;;;;18.65;100.00;100049.69;5254005;33;33839;-83
2023/09/19 07:46:03;;;;;;;1.40;0.80;;;;;;;18.55;100.00;100056.56;5273439;33;33561;-83
2023/09/19 07:49:06;;;;;;;1.00;0.65;;;;;;;18.25;100.00;100062.16;5271184;33;33005;-83
2023/09/19 07:52:10;;;;;;;0.60;0.60;;;;;;;17.72;100.00;100071.13;5243163;33;33275;-83
2023/09/19 07:55:16;;;;;;;1.55;0.70;;;;;;;17.41;100.00;100064.88;5247977;33;33399;-83
2023/09/19 07:58:19;;;;;;;1.62;0.82;;;;;;;17.35;100.00;100068.53;5280767;33;33408;-84
2023/09/19 08:01:23;;;;;;;3.42;1.27;;;;;;;17.36;100.00;100074.78;5267523;33;32972;-83
2023/09/19 08:04:27;;;;;;;0.70;0.70;;;;;;;17.38;100.00;100080.84;5261897;33;33057;-83
2023/09/19 08:07:30;;;;;;;1.00;1.00;;;;;;;17.33;100.00;100084.25;5241925;33;33358;-83
2023/09/19 08:10:35;;;;;;;1.98;1.00;;;;;;;17.29;100.00;100093.94;5254149;33;33349;-83
2023/09/19 08:13:43;;;;;;;2.30;0.93;;;;;;;17.22;100.00;100098.59;5247307;33;33786;-83
2023/09/19 08:16:46;;;;;;;1.85;1.17;;;;;;;17.19;100.00;100097.19;5261099;33;34158;-83
2023/09/19 08:19:52;;;;;;;2.95;1.17;;;;;;;17.30;100.00;100106.47;5249561;33;33067;-86
2023/09/19 08:22:56;;;;;;;1.25;0.73;;;;;;;17.32;100.00;100109.81;5267270;33;33889;-84
2023/09/19 08:26:03;;;;;;;3.33;0.90;;;;;;;17.36;100.00;100121.87;5232336;33;33780;-84
2023/09/19 08:29:10;;;;;;;1.37;0.80;;;;;;;17.43;100.00;100133.53;5243011;33;33796;-83
2023/09/19 08:32:12;;;;;;;1.02;0.70;;;;;;;17.37;100.00;100134.41;5243189;33;33296;-84
2023/09/19 08:35:16;;;;;;;1.75;0.82;;;;;;;17.41;100.00;100135.63;5249427;33;33248;-87
2023/09/19 08:38:20;;;;;;;2.85;1.30;;;;;;;17.39;100.00;100142.37;5267834;33;33665;-88
2023/09/19 08:41:23;;;;;;;1.62;1.08;;;;;;;17.42;100.00;100133.75;5271736;33;34021;-88
2023/09/19 08:44:30;;;;;;;2.10;1.00;;;;;;;17.50;100.00;100136.16;5262819;33;33393;-84
2023/09/19 08:47:50;;;;;;;2.95;0.90;;;;;;;17.56;100.00;100148.84;5251594;33;33951;-84
2023/09/19 08:51:03;;;;;;;1.90;0.88;;;;;;;17.51;100.00;100156.03;5262163;33;33243;-83
2023/09/19 08:54:07;;;;;;;1.42;0.90;;;;;;;17.63;100.00;100163.19;5277659;33;32970;-83
2023/09/19 08:57:11;;;;;;;1.10;1.00;;;;;;;17.79;100.00;100169.94;5270632;33;33352;-83
2023/09/19 09:00:20;;;;;;;1.20;1.05;;;;;;;17.78;100.00;100176.44;5270246;33;34237;-84
2023/09/19 09:03:25;;;;;;;2.10;1.08;;;;;;;17.70;100.00;100184.91;5268581;33;32913;-84
2023/09/19 09:06:29;;;;;;;1.30;1.20;;;;;;;17.74;100.00;100193.44;5263581;33;33257;-84
2023/09/19 09:09:34;;;;;;;1.10;0.98;;;;;;;17.75;100.00;100185.03;5254290;33;35031;-83
2023/09/19 09:12:39;;;;;;;2.20;0.98;;;;;;;17.70;100.00;100176.72;5256666;33;33873;-84
2023/09/19 09:15:44;;;;;;;5.53;1.55;;;;;;;17.51;100.00;100180.53;5242741;33;33172;-84
2023/09/19 09:18:54;;;;;;;1.95;1.15;;;;;;;17.62;100.00;100166.16;5255467;33;33743;-84
2023/09/19 09:22:11;;;;;;;2.70;0.98;;;;;;;17.98;100.00;100140.75;5270627;33;34404;-84
2023/09/19 09:25:14;;;;;;;1.55;0.88;;;;;;;18.35;100.00;100138.69;5272226;33;33587;-84
2023/09/19 09:28:25;;;;;;;2.10;1.15;;;;;;;18.46;100.00;100152.59;5241530;33;33109;-84
2023/09/19 09:31:29;;;;;;;1.80;0.95;;;;;;;18.65;100.00;100140.50;5254738;33;32940;-84
2023/09/19 09:34:33;;;;;;;3.80;0.90;;;;;;;18.71;100.00;100127.81;5230314;33;33379;-84
2023/09/19 09:37:38;;;;;;;2.10;1.20;;;;;;;18.51;100.00;100133.62;5251394;33;34177;-84
2023/09/19 09:41:06;;;;;;;1.50;1.00;;;;;;;18.56;100.00;100115.47;5248035;33;34350;-84
2023/09/19 09:44:19;;;;;;;2.50;1.40;;;;;;;18.49;100.00;100105.78;5271325;33;33400;-83
2023/09/19 09:47:41;;;;;;;2.42;1.25;;;;;;;18.34;100.00;100117.16;5259873;33;33228;-84
2023/09/19 09:53:52;;;;;;;3.87;1.35;;;;;;;18.14;100.00;100125.63;5236682;33;33554;-84
2023/09/19 09:57:20;;;;;;;3.20;1.27;;;;;;;18.05;100.00;100130.59;5253286;33;33088;-84
2023/09/19 10:00:23;;;;;;;1.35;1.25;;;;;;;18.11;100.00;100151.44;5267443;33;33460;-84
2023/09/19 10:04:00;;;;;;;2.05;0.88;;;;;;;18.19;100.00;100163.91;5255115;33;32082;-84
2023/09/19 10:07:11;;;;;;;1.48;1.37;;;;;;;18.28;100.00;100156.22;5278800;33;33807;-84
2023/09/19 10:10:21;;;;;;;1.83;1.08;;;;;;;18.39;100.00;100149.13;5253658;33;34155;-84
2023/09/19 10:13:29;;;;;;;1.20;1.10;;;;;;;18.58;100.00;100146.06;5261078;33;33713;-84
2023/09/19 10:16:34;;;;;;;1.25;0.82;;;;;;;19.05;100.00;100144.44;5273040;33;33285;-84
2023/09/19 10:19:46;;;;;;;1.23;1.00;;;;;;;19.79;100.00;100152.81;5259898;33;34242;-85
2023/09/19 10:22:57;;;;;;;1.23;0.90;;;;;;;20.31;100.00;100144.44;5265896;33;34259;-84
2023/09/19 10:26:01;;;;;;;1.00;0.90;;;;;;;20.69;100.00;100159.31;5257594;33;33305;-85
2023/09/19 10:29:07;;;;;;;1.95;0.88;;;;;;;20.96;100.00;100153.97;5250411;33;35142;-84
2023/09/19 10:32:18;;;;;;;1.35;1.00;;;;;;;20.95;100.00;100158.59;5249655;33;33704;-84
2023/09/19 10:35:23;;;;;;;2.15;1.08;;;;;;;21.13;100.00;100152.00;5243662;33;34556;-84
2023/09/19 10:38:28;;;;;;;3.22;1.45;;;;;;;21.36;100.00;100169.28;5247097;33;33177;-84
2023/09/19 10:41:34;;;;;;;1.23;1.12;;;;;;;21.59;100.00;100166.31;5263794;33;34068;-84
2023/09/19 10:44:42;;;;;;;1.77;1.30;;;;;;;21.63;100.00;100169.37;5257374;33;33297;-83
2023/09/19 10:47:46;;;;;;;2.72;1.08;;;;;;;21.69;100.00;100171.91;5254433;33;33336;-84
2023/09/19 10:50:59;;;;;;;2.58;1.33;;;;;;;21.74;100.00;100168.41;5241565;33;33431;-84
2023/09/19 10:54:13;;;;;;;1.42;1.02;;;;;;;21.84;100.00;100164.94;5253815;33;33381;-84
2023/09/19 10:57:27;;;;;;;2.00;1.30;;;;;;;21.47;100.00;100182.06;5254190;33;33351;-84
2023/09/19 11:00:49;;;;;;;6.35;1.58;;;;;;;21.63;100.00;100174.84;5240633;33;33794;-84
2023/09/19 11:04:25;;;;;;;2.00;1.30;;;;;;;21.62;100.00;100181.44;5242773;33;33986;-84
2023/09/19 11:07:30;;;;;;;2.22;1.05;;;;;;;21.57;100.00;100179.44;5257279;33;33628;-84
2023/09/19 11:10:54;;;;;;;1.27;1.17;;;;;;;21.66;100.00;100179.81;5252850;33;34187;-83
2023/09/19 11:14:19;;;;;;;2.45;1.00;;;;;;;21.64;100.00;100190.19;5248463;33;34013;-84
2023/09/19 11:17:32;;;;;;;1.65;1.30;;;;;;;21.82;100.00;100189.87;5248076;33;33532;-84
2023/09/19 11:20:41;;;;;;;5.28;1.15;;;;;;;21.95;100.00;100196.87;5262528;33;33274;-84
2023/09/19 11:24:31;;;;;;;2.50;1.10;;;;;;;22.60;100.00;100197.78;5276088;33;34031;-84
2023/09/19 11:27:56;;;;;;;2.50;1.10;;;;;;;24.19;100.00;100185.72;5284860;33;32662;-84
2023/09/19 11:31:53;;;;;;;1.75;1.00;;;;;;;26.08;92.89;100196.37;5271634;33;33461;-84
2023/09/19 11:35:09;;;;;;;;;;;;;;;26.18;83.71;100189.97;5277155;33;33125;-87
2023/09/19 11:38:16;;;;;;;0.82;0.75;;;;;;;27.24;80.20;100184.66;5261613;33;34690;-85
2023/09/19 11:41:41;;;;;;;1.53;1.40;;;;;;;27.78;73.90;100172.37;5261136;33;32505;-85
2023/09/19 11:44:51;;;;;;;2.05;0.60;;;;;;;29.55;64.99;100171.59;5273205;33;33564;-85
2023/09/19 11:47:58;;;;;;;2.47;1.15;;;;;;;31.49;57.03;100174.31;5249508;33;34874;-85
2023/09/19 11:51:23;;;;;;;1.23;0.60;;;;;;;32.94;50.88;100150.72;5282599;33;33587;-85
2023/09/19 11:54:42;;;;;;;2.17;0.70;;;;;;;32.00;49.59;100150.53;5279336;33;33846;-84
2023/09/19 11:57:51;;;;;;;1.35;0.90;;;;;;;30.93;51.45;100148.09;5253199;33;34465;-85
2023/09/19 12:00:58;;;;;;;1.20;0.60;;;;;;;30.57;51.24;100142.59;5250114;33;33593;-82
2023/09/19 12:04:04;;;;;;;0.50;0.50;;;;;;;31.56;49.31;100137.66;5274092;33;32996;-83
2023/09/19 12:07:15;;;;;;;2.05;0.70;;;;;;;32.97;46.72;100135.31;5276027;33;33251;-83
2023/09/19 12:10:21;;;;;;;0.70;0.70;;;;;;;34.68;40.74;100140.38;5280632;33;33341;-83
2023/09/19 12:13:25;;;;;;;2.53;0.70;;;;;;;34.93;41.13;100146.84;5270270;33;33362;-84
2023/09/19 12:16:33;;;;;;;0.93;0.80;;;;;;;35.40;40.39;100146.41;5264960;33;33647;-88
2023/09/19 12:19:38;;;;;;;1.52;0.82;;;;;;;34.95;37.56;100131.31;5265007;33;33130;-88
2023/09/19 12:22:43;;;;;;;0.70;0.57;;;;;;;34.32;39.37;100150.25;5255153;33;33155;-84
2023/09/19 12:25:48;;;;;;;0.90;0.50;;;;;;;32.11;43.96;100147.41;5257747;33;32820;-84
2023/09/19 12:28:55;;;;;;;1.27;0.73;;;;;;;31.22;46.34;100147.53;5274609;33;34333;-84
2023/09/19 12:31:59;;;;;;;1.58;0.80;;;;;;;30.93;48.27;100156.41;5282173;33;34013;-84
2023/09/19 12:35:07;;;;;;;0.93;0.93;;;;;;;31.24;46.73;100153.63;5275726;33;33983;-84
2023/09/19 12:38:10;;;;;;;2.73;1.10;;;;;;;31.51;45.63;100160.91;5259067;33;33424;-84
2023/09/19 12:41:13;;;;;;;1.15;0.95;;;;;;;31.97;44.17;100159.56;5225579;33;33082;-84
2023/09/19 12:44:18;;;;;;;1.30;1.02;;;;;;;32.85;43.43;100168.63;5243175;33;33297;-84
2023/09/19 12:47:24;;;;;;;2.17;0.75;;;;;;;32.34;43.36;100170.34;5243015;33;33666;-84
2023/09/19 12:50:29;;;;;;;1.65;0.95;;;;;;;31.76;44.09;100166.84;5244022;33;33030;-84
2023/09/19 12:53:42;;;;;;;2.37;1.08;;;;;;;32.47;43.18;100163.81;5243232;33;34161;-84
2023/09/19 12:56:47;;;;;;;1.20;0.90;;;;;;;34.18;39.43;100166.50;5254928;33;33777;-84
2023/09/19 12:59:52;;;;;;;1.35;0.85;;;;;;;36.10;37.44;100166.63;5241757;33;34251;-84
2023/09/19 13:03:25;;;;;;;1.05;0.93;;;;;;;37.30;32.49;100172.31;5254524;33;33503;-84
2023/09/19 13:06:38;;;;;;;2.10;0.98;;;;;;;37.78;31.13;100164.62;5254091;33;32982;-84
2023/09/19 13:10:04;;;;;;;1.27;0.95;;;;;;;37.31;32.06;100164.69;5242488;33;33046;-84
2023/09/19 13:13:27;;;;;;;1.00;0.88;;;;;;;39.09;29.69;100162.03;5254038;33;33011;-84
2023/09/19 13:16:31;;;;;;;1.20;0.93;;;;;;;39.74;28.41;100157.41;5270110;33;33237;-84
2023/09/19 13:19:48;;;;;;;1.37;0.90;;;;;;;39.76;27.85;100155.87;5247302;33;33003;-85
2023/09/19 13:22:54;;;;;;;0.90;0.80;;;;;;;38.40;29.89;100159.13;5277430;33;33358;-85
2023/09/19 13:25:57;;;;;;;2.72;1.00;;;;;;;39.32;28.74;100156.41;5284083;33;33144;-85
2023/09/19 13:29:01;;;;;;;2.65;0.80;;;;;;;40.40;27.55;100150.25;5263357;33;34493;-84
2023/09/19 13:32:04;;;;;;;2.20;0.85;;;;;;;39.97;27.17;100157.38;5261266;33;33526;-84
2023/09/19 13:35:08;;;;;;;1.15;0.98;;;;;;;39.21;28.00;100161.03;5264193;33;33303;-84
2023/09/19 13:38:12;;;;;;;2.37;1.25;;;;;;;36.93;30.99;100160.50;5264493;33;32735;-84
2023/09/19 13:41:16;;;;;;;0.75;0.62;;;;;;;37.80;30.43;100150.22;5276376;33;33259;-84
2023/09/19 13:44:19;;;;;;;1.37;1.10;;;;;;;37.39;30.13;100156.06;5263518;33;33400;-84
2023/09/19 13:47:24;;;;;;;1.15;0.88;;;;;;;36.65;30.83;100161.41;5245987;33;33020;-84
2023/09/19 13:50:29;;;;;;;1.90;1.00;;;;;;;36.93;30.45;100166.13;5243818;33;33027;-85
2023/09/19 13:53:32;;;;;;;1.08;0.70;;;;;;;36.05;31.20;100171.66;5243900;33;34027;-85
2023/09/19 13:56:36;;;;;;;2.20;0.90;;;;;;;35.40;32.11;100180.81;5248345;33;33391;-85
2023/09/19 13:59:39;;;;;;;2.30;0.90;;;;;;;35.51;33.64;100192.38;5243188;33;32903;-84
2023/09/19 14:02:45;;;;;;;1.02;0.90;;;;;;;35.56;32.85;100196.94;5244525;33;33464;-84
2023/09/19 14:05:51;;;;;;;1.20;0.80;;;;;;;35.51;33.26;100191.53;5263170;33;31964;-84
2023/09/19 14:08:54;;;;;;;1.00;0.80;;;;;;;34.55;35.22;100189.84;5247222;33;33040;-84
2023/09/19 14:11:57;;;;;;;1.20;1.00;;;;;;;32.14;39.17;100196.91;5273530;33;33295;-83
2023/09/19 14:15:00;;;;;;;1.95;1.25;;;;;;;29.97;43.95;100200.13;5252660;33;32783;-83
2023/09/19 14:18:04;;;;;;;2.85;1.17;;;;;;;28.83;47.41;100199.03;5241101;33;34466;-83
2023/09/19 14:21:11;;;;;;;2.65;1.20;;;;;;;27.81;50.70;100195.88;5253865;33;33920;-83
2023/09/19 14:24:17;;;;;;;1.10;1.00;;;;;;;26.70;55.64;100207.81;5254581;33;34950;-84
2023/09/19 14:27:20;;;;;;;1.10;1.00;;;;;;;26.09;58.76;100205.47;5255253;33;33288;-83
2023/09/19 14:30:23;;;;;;;3.10;1.30;;;;;;;25.56;62.68;100200.47;5253986;33;33766;-83
2023/09/19 14:33:26;;;;;;;2.00;1.23;;;;;;;25.19;63.54;100198.12;5249657;33;33301;-83
2023/09/19 14:36:33;;;;;;;2.00;1.30;;;;;;;25.00;66.73;100204.16;5230684;33;33302;-84
2023/09/19 14:39:35;;;;;;;1.40;1.30;;;;;;;24.92;66.45;100206.66;5241532;33;33017;-83
2023/09/19 14:42:39;;;;;;;1.70;1.30;;;;;;;24.62;69.08;100195.38;5233670;33;34275;-83
2023/09/19 14:45:42;;;;;;;1.42;1.33;;;;;;;24.34;70.01;100194.00;5255629;33;32883;-83
2023/09/19 14:48:47;;;;;;;2.12;1.40;;;;;;;23.94;71.51;100200.22;5241625;33;33312;-84
2023/09/19 14:51:52;;;;;;;2.17;1.40;;;;;;;23.82;72.34;100196.91;5254557;33;35754;-84
2023/09/19 14:54:55;;;;;;;1.87;1.25;;;;;;;23.74;74.86;100203.75;5237024;33;33467;-86
2023/09/19 14:57:59;;;;;;;2.37;1.60;;;;;;;23.56;75.56;100198.69;5242413;33;34223;-87
2023/09/19 15:01:04;;;;;;;1.50;1.40;;;;;;;23.36;75.22;100202.16;5287923;33;33670;-84
2023/09/19 15:04:07;;;;;;;2.58;1.40;;;;;;;23.31;75.05;100206.56;5281521;33;33532;-85
2023/09/19 15:07:13;;;;;;;1.48;1.37;;;;;;;23.13;74.25;100206.97;5294529;33;33210;-83
2023/09/19 15:10:18;;;;;;;1.55;1.40;;;;;;;23.11;74.15;100206.44;5282154;33;34124;-83
2023/09/19 15:13:21;;;;;;;1.40;1.30;;;;;;;23.02;74.19;100202.50;5264531;33;33663;-83
2023/09/19 15:16:24;;;;;;;1.48;1.10;;;;;;;22.98;75.69;100198.66;5264533;33;33543;-83
2023/09/19 15:19:27;;;;;;;3.40;1.35;;;;;;;22.98;72.37;100206.87;5268689;33;252845;-83
2023/09/19 15:22:30;;;;;;;5.40;1.77;;;;;;;22.86;73.23;100207.88;5276089;33;33720;-83
2023/09/19 15:25:34;;;;;;;2.28;1.40;;;;;;;22.70;73.26;100208.88;5275499;33;34314;-83
2023/09/19 15:28:38;;;;;;;1.20;1.08;;;;;;;22.64;73.19;100220.88;5275743;33;33632;-83
2023/09/19 15:31:43;;;;;;;1.55;1.27;;;;;;;22.66;73.84;100206.87;5282366;33;34190;-83
2023/09/19 15:34:47;;;;;;;2.95;1.20;;;;;;;22.63;74.18;100231.00;5270811;33;33289;-82
2023/09/19 15:37:52;;;;;;;2.85;1.65;;;;;;;22.51;74.00;100230.37;5257432;33;33651;-83
2023/09/19 15:40:55;;;;;;;1.70;1.23;;;;;;;22.43;74.37;100228.09;5258280;33;34304;-83
2023/09/19 15:44:01;;;;;;;3.60;1.20;;;;;;;22.36;76.01;100233.78;5243202;33;33572;-83
2023/09/19 15:47:04;;;;;;;3.30;1.20;;;;;;;22.32;76.15;100240.91;5240822;33;33601;-83
2023/09/19 15:50:13;;;;;;;3.80;1.60;;;;;;;22.30;76.85;100242.25;5240518;33;34248;-83
2023/09/19 15:53:16;;;;;;;3.90;1.70;;;;;;;22.29;76.82;100249.66;5253231;33;34031;-83
2023/09/19 15:56:22;;;;;;;1.70;1.60;;;;;;;22.29;78.16;100248.78;5240702;33;34173;-83
2023/09/19 15:59:25;;;;;;;1.40;1.30;;;;;;;22.21;78.34;100250.09;5256989;33;33816;-83
